Terminal Aerodrome Forecast
Issued by NWS

Home | Current Version | Previous Version | Text Only | Print | Product List | Glossary On
Versions: 1 2 3 4 5 6 7 8 9 10 11 12 13 14 15 16 17 18 19 20 21 22 23 24 25
000
FTUS45 KGJT 011734
TAFDRO
TAF
KDRO 011734Z 0118/0218 10004KT P6SM SCT090 SCT120
     FM011900 28010KT P6SM SCT100 BKN200
     FM020200 03004KT P6SM FEW110 SCT200=

USA.gov is the U.S. government's official web portal to all federal, state and local government web resources and services.